Time;durP1;ratioP1;P1;durP2;ratioP2;P2;SDS_P1;SDS_P2;PMS_P1;PMS_P2;Temp;Humidity;BMP_temperature;BMP_pressure;BME280_temperature;BME280_humidity;BME280_pressure;Samples;Min_cycle;Max_cycle;Signal;HPM_P1;HPM_P2
2021/11/02 00:01:22;;;;;;;6.80;0.98;;;;;;;16.14;65.29;100472.06;4977916;28;20061;-55
2021/11/02 00:03:49;;;;;;;8.13;0.90;;;;;;;16.13;65.06;100461.94;4977718;28;20138;-53
2021/11/02 00:06:16;;;;;;;7.22;2.25;;;;;;;16.19;65.13;100449.38;4983157;28;20125;-56
2021/11/02 00:08:43;;;;;;;3.38;1.00;;;;;;;16.24;64.73;100440.81;4977150;28;20054;-50
2021/11/02 00:11:10;;;;;;;10.32;1.45;;;;;;;16.18;64.60;100428.00;4979773;28;20555;-56
2021/11/02 00:13:39;;;;;;;2.67;0.82;;;;;;;16.17;64.64;100419.84;4982088;28;20156;-55
2021/11/02 00:16:10;;;;;;;6.13;1.00;;;;;;;16.26;64.55;100415.94;4988915;28;20088;-54
2021/11/02 00:18:43;;;;;;;6.57;1.17;;;;;;;16.34;64.88;100418.00;4995628;28;20411;-55
2021/11/02 00:21:10;;;;;;;3.57;1.17;;;;;;;16.31;64.36;100401.72;4992100;28;20130;-55
2021/11/02 00:23:37;;;;;;;5.53;1.20;;;;;;;16.31;64.28;100409.38;4991440;28;20085;-55
2021/11/02 00:26:07;;;;;;;2.17;0.73;;;;;;;16.28;64.64;100410.84;4995299;28;20085;-55
2021/11/02 00:28:34;;;;;;;5.77;1.00;;;;;;;16.17;64.69;100401.00;4984341;28;20058;-53
2021/11/02 00:31:02;;;;;;;4.57;1.45;;;;;;;16.25;64.65;100430.38;4976472;28;20316;-53
2021/11/02 00:33:30;;;;;;;6.22;1.50;;;;;;;16.23;64.76;100427.84;4992336;28;20446;-52
2021/11/02 00:35:57;;;;;;;7.93;1.35;;;;;;;16.29;65.08;100418.13;4991658;28;20089;-54
2021/11/02 00:38:25;;;;;;;7.07;1.02;;;;;;;16.26;65.05;100410.31;4995006;28;20089;-55
2021/11/02 00:40:52;;;;;;;6.78;1.33;;;;;;;16.41;65.04;100419.50;4993058;28;20074;-54
2021/11/02 00:43:22;;;;;;;3.75;1.95;;;;;;;16.38;65.16;100406.09;4993947;28;20472;-54
2021/11/02 00:45:49;;;;;;;9.90;2.17;;;;;;;16.53;64.79;100414.13;4992791;28;20844;-54
2021/11/02 00:48:23;;;;;;;2.55;1.02;;;;;;;16.34;64.91;100392.63;4986465;28;20055;-54
2021/11/02 00:50:51;;;;;;;5.32;1.20;;;;;;;16.54;64.85;100402.50;4992274;28;20077;-54
2021/11/02 00:53:18;;;;;;;5.90;2.00;;;;;;;16.57;65.34;100409.47;4983345;28;20559;-56
2021/11/02 00:55:45;;;;;;;13.82;1.17;;;;;;;16.60;65.12;100408.84;4993429;28;20077;-57
2021/11/02 00:58:12;;;;;;;7.72;1.15;;;;;;;16.64;65.44;100414.66;4987569;28;20050;-55
2021/11/02 01:00:39;;;;;;;7.15;2.13;;;;;;;16.64;65.20;100392.94;4976618;28;20093;-57
2021/11/02 01:03:07;;;;;;;3.28;1.17;;;;;;;16.66;65.06;100395.44;4987283;28;20043;-55
2021/11/02 01:05:35;;;;;;;9.73;1.52;;;;;;;16.68;64.87;100396.75;4986871;28;20077;-53
2021/11/02 01:08:02;;;;;;;4.03;1.25;;;;;;;16.69;65.07;100406.06;4992504;28;20121;-52
2021/11/02 01:10:29;;;;;;;2.55;0.90;;;;;;;16.68;64.92;100419.31;4992476;28;20459;-52
2021/11/02 01:12:56;;;;;;;3.17;1.25;;;;;;;16.66;64.72;100416.00;4989656;28;20461;-53
2021/11/02 01:15:26;;;;;;;9.80;1.40;;;;;;;16.62;64.83;100412.16;4991110;28;20082;-53
2021/11/02 01:17:57;;;;;;;4.50;1.35;;;;;;;16.57;64.64;100398.19;4993080;28;20137;-52
2021/11/02 01:20:25;;;;;;;4.88;1.00;;;;;;;16.61;64.81;100406.84;4990090;28;20130;-54
2021/11/02 01:22:52;;;;;;;6.50;1.35;;;;;;;16.66;64.59;100401.06;4987493;28;20137;-52
2021/11/02 01:25:21;;;;;;;6.47;1.50;;;;;;;16.67;64.13;100385.81;4985976;28;20079;-55
2021/11/02 01:27:49;;;;;;;4.68;1.48;;;;;;;16.71;64.40;100398.09;4990733;28;20506;-56
2021/11/02 01:30:16;;;;;;;6.35;1.17;;;;;;;16.68;64.14;100393.09;4988310;28;20058;-54
2021/11/02 01:32:44;;;;;;;7.80;1.25;;;;;;;16.72;64.02;100389.31;4985901;28;20081;-56
2021/11/02 01:35:12;;;;;;;3.22;1.20;;;;;;;16.70;64.07;100362.59;4980080;28;20133;-56
2021/11/02 01:37:39;;;;;;;4.38;1.58;;;;;;;16.84;64.02;100368.16;4991148;28;20074;-53
2021/11/02 01:40:09;;;;;;;5.32;1.45;;;;;;;16.89;63.88;100371.66;4982924;28;20057;-55
2021/11/02 01:42:37;;;;;;;8.00;1.98;;;;;;;16.93;64.04;100366.19;4986332;28;20070;-58
2021/11/02 01:45:05;;;;;;;6.50;1.00;;;;;;;16.94;63.86;100362.22;4989302;28;20129;-57
2021/11/02 01:47:34;;;;;;;1.75;0.77;;;;;;;17.05;63.58;100369.19;4990210;28;20085;-58
2021/11/02 01:50:03;;;;;;;1.60;0.60;;;;;;;16.99;63.89;100354.44;4988452;28;20132;-58
2021/11/02 01:52:32;;;;;;;1.60;0.63;;;;;;;16.95;63.77;100358.22;4983044;28;20555;-58
2021/11/02 01:54:59;;;;;;;7.35;1.15;;;;;;;17.01;63.68;100365.38;4978278;28;20121;-59
2021/11/02 01:57:27;;;;;;;3.10;0.95;;;;;;;16.98;63.54;100358.41;4983726;28;20130;-58
2021/11/02 01:59:56;;;;;;;7.60;1.00;;;;;;;17.03;63.83;100348.97;4989170;28;20093;-58
2021/11/02 02:03:02;;;;;;;3.65;1.33;;;;;;;17.02;63.54;100333.19;4986257;28;20121;-59
2021/11/02 02:05:55;;;;;;;4.25;1.20;;;;;;;17.05;63.33;100341.00;4938581;28;20050;-59
2021/11/02 02:08:27;;;;;;;3.70;1.10;;;;;;;17.03;63.70;100335.69;4986720;28;20133;-58
2021/11/02 02:11:20;;;;;;;4.35;0.73;;;;;;;17.01;63.42;100352.09;4984159;28;20108;-55
2021/11/02 02:14:02;;;;;;;2.13;0.82;;;;;;;16.96;63.89;100328.88;4977408;28;20078;-56
2021/11/02 02:16:38;;;;;;;3.33;0.82;;;;;;;16.96;63.76;100335.34;4984211;28;20078;-56
2021/11/02 02:19:32;;;;;;;4.30;0.95;;;;;;;16.93;63.72;100330.34;4985484;28;20054;-55
2021/11/02 02:22:11;;;;;;;5.25;1.10;;;;;;;16.89;64.02;100329.34;4980877;28;20082;-56
2021/11/02 02:25:06;;;;;;;1.15;0.47;;;;;;;16.85;63.99;100333.16;4982109;28;20146;-54
2021/11/02 02:27:44;;;;;;;8.55;1.00;;;;;;;16.80;63.96;100314.41;4979436;28;20600;-53
2021/11/02 02:30:16;;;;;;;2.78;0.80;;;;;;;16.80;63.75;100314.41;4978348;28;20097;-54
2021/11/02 02:32:50;;;;;;;10.60;0.95;;;;;;;16.76;63.80;100325.50;4990779;28;20129;-56
2021/11/02 02:35:19;;;;;;;3.50;0.80;;;;;;;16.70;63.87;100312.69;4987140;28;20371;-54
2021/11/02 02:37:48;;;;;;;4.32;1.25;;;;;;;16.72;64.21;100310.38;4988128;28;20462;-54
2021/11/02 02:40:16;;;;;;;4.10;1.20;;;;;;;16.52;64.01;100282.78;4987150;28;20129;-54
2021/11/02 02:42:45;;;;;;;4.85;1.00;;;;;;;16.65;63.59;100307.22;4980291;28;20050;-55
2021/11/02 02:45:15;;;;;;;3.03;0.57;;;;;;;16.67;63.84;100318.16;4988957;28;20089;-49
2021/11/02 02:47:48;;;;;;;2.38;0.70;;;;;;;16.64;63.90;100313.16;4980407;28;20074;-54
2021/11/02 02:50:18;;;;;;;4.13;0.95;;;;;;;16.65;63.81;100317.63;4988758;28;20129;-55
2021/11/02 02:52:46;;;;;;;5.25;1.30;;;;;;;16.51;63.99;100310.16;4977561;28;20089;-55
2021/11/02 02:55:14;;;;;;;4.55;1.00;;;;;;;16.50;63.70;100308.47;4977659;28;20089;-53
2021/11/02 02:57:43;;;;;;;3.05;0.55;;;;;;;16.51;63.83;100306.47;4983798;28;20081;-55
2021/11/02 03:00:12;;;;;;;3.30;1.60;;;;;;;16.51;64.00;100312.13;4981479;28;20130;-55
2021/11/02 03:02:41;;;;;;;8.43;0.95;;;;;;;16.52;63.89;100313.81;4981818;28;20352;-50
2021/11/02 03:05:09;;;;;;;7.18;0.98;;;;;;;16.57;64.01;100319.28;4979724;28;20126;-57
2021/11/02 03:07:37;;;;;;;8.13;1.15;;;;;;;16.59;63.99;100300.06;4987482;28;20085;-50
2021/11/02 03:10:07;;;;;;;3.70;0.65;;;;;;;16.56;63.98;100295.06;4985624;28;20284;-53
2021/11/02 03:12:37;;;;;;;5.03;1.10;;;;;;;16.55;63.92;100293.41;4986420;28;20043;-52
2021/11/02 03:15:48;;;;;;;2.50;0.77;;;;;;;16.44;64.11;100283.56;4985339;28;20085;-55
2021/11/02 03:49:09;;;;;;;8.60;1.13;;;;;;;15.94;65.82;100283.88;4987239;28;20234;-51
2021/11/02 03:54:35;;;;;;;6.40;1.30;;;;;;;15.68;65.98;100245.13;4986973;28;20078;-58
2021/11/02 05:09:28;;;;;;;9.13;2.45;;;;;;;15.66;72.80;100247.44;4991133;28;20045;-57
2021/11/02 05:48:00;;;;;;;2.88;1.15;;;;;;;15.50;74.46;100238.53;4986548;28;20078;-58
2021/11/02 05:59:38;;;;;;;12.33;1.60;;;;;;;15.50;74.56;100237.72;4986079;28;20137;-57
2021/11/02 06:09:24;;;;;;;5.87;1.73;;;;;;;15.43;75.09;100212.84;4987704;28;20039;-54
2021/11/02 06:29:18;;;;;;;2.93;0.97;;;;;;;15.36;75.39;100198.41;4986588;28;20494;-54
2021/11/02 06:31:57;;;;;;;4.57;1.30;;;;;;;15.29;75.33;100192.41;4984583;28;20170;-54
2021/11/02 06:37:39;;;;;;;4.82;1.42;;;;;;;15.23;75.57;100173.97;4988061;28;20125;-50
2021/11/02 06:54:01;;;;;;;10.52;1.23;;;;;;;15.83;75.02;100187.59;4977184;28;20084;-50
2021/11/02 07:19:31;;;;;;;14.38;2.35;;;;;;;15.52;75.77;100201.63;4967123;28;20081;-54
2021/11/02 07:22:17;;;;;;;11.60;1.97;;;;;;;15.58;75.70;100203.16;4987675;28;20085;-54
2021/11/02 07:25:02;;;;;;;8.18;1.83;;;;;;;15.62;75.85;100187.28;4986072;28;20177;-55
2021/11/02 08:45:58;;;;;;;5.07;1.35;;;;;;;17.14;77.08;100212.06;4993953;28;20077;-49
2021/11/02 08:48:27;;;;;;;10.50;2.13;;;;;;;17.25;77.01;100210.53;4992351;28;20070;-54
2021/11/02 08:50:55;;;;;;;5.03;2.00;;;;;;;17.43;77.23;100205.69;4985342;28;20165;-53
2021/11/02 08:53:25;;;;;;;9.07;2.20;;;;;;;17.57;76.89;100202.66;4984304;28;20130;-54
2021/11/02 08:55:52;;;;;;;6.05;2.58;;;;;;;17.72;77.09;100195.66;4994617;28;20078;-52
2021/11/02 08:58:24;;;;;;;3.40;1.52;;;;;;;17.83;76.75;100184.84;4995244;28;20130;-52
2021/11/02 09:00:55;;;;;;;4.63;2.10;;;;;;;17.85;76.77;100179.72;4991414;28;20470;-51
2021/11/02 09:03:31;;;;;;;13.98;2.90;;;;;;;17.85;76.58;100165.59;4990710;28;20046;-54
2021/11/02 09:06:07;;;;;;;8.75;2.30;;;;;;;17.95;76.87;100176.50;4988383;28;20562;-60
2021/11/02 09:08:41;;;;;;;14.80;2.47;;;;;;;17.98;76.77;100187.09;4981574;28;20497;-60
2021/11/02 09:11:08;;;;;;;9.13;1.75;;;;;;;18.13;76.46;100186.53;4988585;28;20482;-60
2021/11/02 09:13:37;;;;;;;10.10;1.98;;;;;;;18.21;75.89;100182.84;4979394;28;20567;-60
2021/11/02 09:16:05;;;;;;;6.22;1.77;;;;;;;18.31;75.45;100190.09;4978931;28;20357;-61
2021/11/02 09:18:33;;;;;;;5.43;1.60;;;;;;;18.27;75.76;100185.47;4992251;28;20122;-61
2021/11/02 09:21:00;;;;;;;4.90;1.40;;;;;;;18.32;75.36;100179.59;4980076;28;20547;-60
2021/11/02 09:23:27;;;;;;;7.63;1.77;;;;;;;18.30;75.27;100171.47;4977570;28;20499;-61
2021/11/02 09:25:56;;;;;;;8.18;1.75;;;;;;;18.26;75.22;100161.22;4992404;28;20081;-59
2021/11/02 09:28:25;;;;;;;4.55;0.77;;;;;;;18.23;74.76;100165.53;4985186;28;20094;-59
2021/11/02 09:30:52;;;;;;;7.28;1.20;;;;;;;18.19;74.79;100170.22;4986774;28;20145;-60
2021/11/02 09:33:19;;;;;;;6.20;1.75;;;;;;;18.00;74.97;100157.34;4979473;28;20514;-60
2021/11/02 09:35:57;;;;;;;6.47;1.58;;;;;;;18.11;75.24;100174.75;4988661;28;20447;-60
2021/11/02 09:38:42;;;;;;;8.40;1.63;;;;;;;18.07;75.65;100176.59;4989507;28;20085;-60
2021/11/02 09:41:28;;;;;;;8.05;1.38;;;;;;;17.71;75.21;100171.41;4983746;28;20054;-61
2021/11/02 09:44:15;;;;;;;3.92;0.90;;;;;;;17.35;74.87;100172.69;4984606;28;20130;-60
2021/11/02 09:46:49;;;;;;;3.33;0.80;;;;;;;17.06;75.46;100176.22;4986462;28;20503;-61
2021/11/02 09:49:53;;;;;;;1.02;0.47;;;;;;;16.78;75.89;100162.44;4982092;28;20043;-61
2021/11/02 09:52:54;;;;;;;1.85;0.88;;;;;;;16.60;76.37;100163.56;4986193;28;20078;-61
2021/11/02 09:55:39;;;;;;;4.32;0.77;;;;;;;16.53;76.77;100157.59;4981111;28;20070;-62
2021/11/02 09:58:48;;;;;;;2.42;0.80;;;;;;;16.58;77.09;100165.88;4984464;28;20157;-62
2021/11/02 10:01:29;;;;;;;4.93;1.15;;;;;;;16.68;76.67;100165.56;4985908;28;20078;-62
2021/11/02 10:04:38;;;;;;;9.57;1.02;;;;;;;16.89;77.16;100170.56;4984104;28;20495;-62
2021/11/02 10:07:10;;;;;;;9.00;1.27;;;;;;;17.05;76.98;100166.06;4986138;28;20137;-62
2021/11/02 10:09:56;;;;;;;4.78;1.25;;;;;;;17.15;77.16;100160.09;4983055;28;20070;-62
2021/11/02 10:12:40;;;;;;;4.00;0.82;;;;;;;17.22;77.34;100148.28;4981988;28;20081;-62
2021/11/02 10:15:21;;;;;;;3.20;1.30;;;;;;;17.33;77.66;100148.75;4987494;28;20467;-62
2021/11/02 10:18:14;;;;;;;6.45;1.50;;;;;;;17.45;77.37;100146.91;4989834;28;20069;-61
2021/11/02 10:21:00;;;;;;;4.93;1.45;;;;;;;17.68;78.02;100141.84;4981438;28;20089;-62
2021/11/02 10:23:51;;;;;;;6.28;1.30;;;;;;;18.04;77.67;100146.19;4984409;28;20455;-62
2021/11/02 10:26:42;;;;;;;7.28;2.10;;;;;;;18.30;77.29;100128.25;4980007;28;20050;-62
2021/11/02 10:29:35;;;;;;;9.68;1.50;;;;;;;18.46;76.45;100140.59;4981779;28;20101;-62
2021/11/02 10:32:14;;;;;;;6.60;1.55;;;;;;;18.50;76.76;100124.63;4985471;28;20053;-62
2021/11/02 10:34:58;;;;;;;3.38;1.00;;;;;;;18.62;76.76;100121.03;4986621;28;20561;-62
2021/11/02 10:38:13;;;;;;;5.10;1.25;;;;;;;18.67;76.69;100127.31;4986409;28;20068;-61
2021/11/02 10:41:04;;;;;;;10.32;1.35;;;;;;;18.42;76.11;100117.00;4983145;28;20077;-61
2021/11/02 10:43:59;;;;;;;3.03;0.98;;;;;;;18.18;76.10;100129.00;4981428;28;20049;-61
2021/11/02 10:46:31;;;;;;;5.03;1.42;;;;;;;17.86;75.90;100116.38;4984244;28;20076;-60
2021/11/02 10:49:10;;;;;;;5.40;0.93;;;;;;;17.57;76.79;100119.97;4977977;28;20061;-62
2021/11/02 10:51:47;;;;;;;2.13;1.15;;;;;;;17.44;76.96;100135.97;4988387;28;20593;-61
2021/11/02 10:54:21;;;;;;;3.63;0.70;;;;;;;17.36;76.74;100131.16;4994758;28;20085;-61
2021/11/02 10:57:06;;;;;;;2.85;0.60;;;;;;;17.29;77.02;100117.56;4983391;28;20047;-61
2021/11/02 10:59:41;;;;;;;2.53;0.88;;;;;;;17.28;76.60;100119.56;4987522;28;20125;-61
2021/11/02 11:02:27;;;;;;;1.75;0.82;;;;;;;17.34;76.90;100119.41;4980441;28;20093;-62
2021/11/02 11:04:59;;;;;;;4.00;1.02;;;;;;;17.35;76.84;100109.75;4985987;28;20129;-61
2021/11/02 11:07:35;;;;;;;10.38;1.17;;;;;;;17.42;76.75;100104.41;4988521;28;20149;-54
2021/11/02 11:10:04;;;;;;;4.50;1.67;;;;;;;17.54;76.20;100110.19;4982607;28;20525;-53
2021/11/02 11:13:04;;;;;;;2.95;1.15;;;;;;;17.74;76.97;100097.28;4981699;28;20085;-54
2021/11/02 11:15:32;;;;;;;5.35;1.20;;;;;;;18.06;76.81;100097.84;4976991;28;20092;-53
2021/11/02 11:18:09;;;;;;;9.65;1.20;;;;;;;18.64;76.65;100087.59;4977877;28;20105;-55
2021/11/02 11:20:39;;;;;;;3.50;1.10;;;;;;;19.42;75.38;100081.97;4984375;28;20047;-55
2021/11/02 11:23:11;;;;;;;1.75;0.77;;;;;;;20.20;74.79;100099.09;4987718;28;20050;-55
2021/11/02 11:25:56;;;;;;;2.20;1.27;;;;;;;20.90;73.42;100104.50;4978340;28;20093;-54
2021/11/02 11:28:24;;;;;;;1.25;0.90;;;;;;;20.86;72.77;100081.69;4979343;28;20231;-55
2021/11/02 11:30:57;;;;;;;3.58;0.88;;;;;;;21.19;73.24;100086.25;4984857;28;20466;-53
2021/11/02 11:33:28;;;;;;;1.92;0.57;;;;;;;21.16;72.78;100093.50;4978444;28;20043;-55
2021/11/02 11:36:02;;;;;;;5.75;0.80;;;;;;;20.85;71.45;100097.06;4981247;28;20080;-57
2021/11/02 11:38:42;;;;;;;6.63;0.90;;;;;;;20.52;71.93;100097.31;4981122;28;20077;-58
2021/11/02 11:41:12;;;;;;;3.03;0.60;;;;;;;20.22;71.25;100071.22;4981040;28;20069;-58
2021/11/02 11:43:40;;;;;;;3.20;0.75;;;;;;;20.13;70.88;100082.69;4986929;28;20084;-57
2021/11/02 11:46:10;;;;;;;4.18;0.80;;;;;;;19.96;71.24;100099.94;4980277;28;20474;-58
2021/11/02 11:48:42;;;;;;;2.65;0.73;;;;;;;19.70;71.12;100078.47;4981873;28;20072;-58
2021/11/02 11:51:22;;;;;;;1.40;0.70;;;;;;;19.30;71.80;100084.75;4986835;28;20092;-58
2021/11/02 11:54:01;;;;;;;7.22;0.98;;;;;;;18.75;72.49;100059.72;4984712;28;20046;-58
2021/11/02 11:56:31;;;;;;;3.88;1.00;;;;;;;18.39;73.24;100059.19;4980927;28;20050;-58
2021/11/02 11:58:58;;;;;;;3.05;0.77;;;;;;;18.09;73.78;100055.59;4985256;28;20133;-57
2021/11/02 12:01:31;;;;;;;4.43;1.02;;;;;;;17.97;74.24;100036.53;4984980;28;20097;-57
2021/11/02 12:04:07;;;;;;;3.05;0.65;;;;;;;18.07;74.18;100038.13;4977344;28;20074;-57
2021/11/02 12:06:40;;;;;;;3.53;0.50;;;;;;;17.85;74.51;100013.06;4981635;28;20146;-58
2021/11/02 12:09:21;;;;;;;1.40;0.55;;;;;;;17.83;74.86;100026.69;4987825;28;20109;-57
2021/11/02 12:11:49;;;;;;;4.20;0.80;;;;;;;17.95;75.32;100023.94;4989040;28;20170;-58
2021/11/02 12:14:25;;;;;;;2.33;0.73;;;;;;;17.94;75.09;100020.28;4988840;28;20121;-58
2021/11/02 12:16:59;;;;;;;2.00;1.02;;;;;;;17.83;74.82;100009.72;4990382;28;20101;-57
2021/11/02 12:19:37;;;;;;;2.25;0.60;;;;;;;17.91;74.60;100026.59;4987248;28;20064;-58
2021/11/02 12:22:12;;;;;;;2.80;0.80;;;;;;;17.71;74.27;100013.28;4990688;28;20084;-57
2021/11/02 12:24:44;;;;;;;4.25;0.80;;;;;;;17.52;74.66;100000.41;4983877;28;20175;-57
2021/11/02 12:27:21;;;;;;;4.70;0.95;;;;;;;17.36;74.85;100013.44;4991255;28;20076;-58
2021/11/02 12:29:49;;;;;;;4.30;0.85;;;;;;;17.13;75.13;100001.63;4985837;28;20068;-57
2021/11/02 12:32:22;;;;;;;1.70;0.57;;;;;;;16.95;75.42;100009.28;4990631;28;20210;-57
2021/11/02 12:34:57;;;;;;;0.77;0.55;;;;;;;16.83;75.96;100008.34;4995061;28;20097;-56
2021/11/02 12:37:25;;;;;;;1.30;0.50;;;;;;;16.54;76.18;100004.22;4993812;28;21791;-57
2021/11/02 12:39:52;;;;;;;1.48;0.40;;;;;;;16.46;76.63;99997.44;4991899;28;20086;-57
2021/11/02 12:42:36;;;;;;;0.57;0.40;;;;;;;16.42;77.14;99984.34;4989752;28;20074;-57
2021/11/02 12:45:03;;;;;;;0.68;0.60;;;;;;;16.42;77.55;99985.19;4975892;28;20085;-56
2021/11/02 12:47:31;;;;;;;3.45;1.10;;;;;;;16.45;77.47;99981.69;4975976;28;20082;-57
2021/11/02 12:50:06;;;;;;;1.58;0.85;;;;;;;16.25;78.15;99960.66;4977494;28;20081;-57
2021/11/02 12:52:38;;;;;;;0.68;0.50;;;;;;;16.40;77.69;99975.41;4988709;28;20133;-57
2021/11/02 12:55:14;;;;;;;5.50;1.05;;;;;;;16.33;77.66;99968.28;4994688;28;20092;-57
2021/11/02 12:57:43;;;;;;;6.85;1.38;;;;;;;16.17;77.90;99977.56;4989858;28;20126;-57
2021/11/02 13:00:18;;;;;;;3.35;1.10;;;;;;;16.05;78.20;99967.81;4993575;28;20121;-57
2021/11/02 13:02:58;;;;;;;2.15;0.85;;;;;;;16.09;78.69;99953.88;4990134;28;20109;-57
2021/11/02 13:05:27;;;;;;;2.42;0.60;;;;;;;16.11;78.53;99940.31;4981475;28;20065;-57
2021/11/02 13:08:07;;;;;;;2.78;0.95;;;;;;;16.24;78.89;99939.31;4985242;28;20129;-57
2021/11/02 13:10:35;;;;;;;2.97;1.15;;;;;;;16.40;79.01;99930.31;4992548;28;20043;-58
2021/11/02 13:13:14;;;;;;;4.55;0.88;;;;;;;16.50;78.89;99921.50;4975901;28;20055;-58
2021/11/02 13:15:51;;;;;;;0.93;0.65;;;;;;;16.70;79.15;99920.78;4973743;28;20239;-58
2021/11/02 13:18:37;;;;;;;3.33;1.10;;;;;;;16.84;79.16;99916.94;4976055;28;20058;-58
2021/11/02 13:21:06;;;;;;;2.42;0.85;;;;;;;16.98;78.32;99912.72;4982678;28;20526;-57
2021/11/02 13:23:38;;;;;;;4.97;0.98;;;;;;;17.11;78.35;99910.00;4976641;28;20138;-57
2021/11/02 13:26:20;;;;;;;2.97;0.90;;;;;;;17.12;78.28;99918.13;4986252;28;20093;-58
2021/11/02 13:28:51;;;;;;;2.03;0.88;;;;;;;17.15;77.67;99923.09;4991566;28;20562;-58
2021/11/02 13:31:38;;;;;;;1.50;0.57;;;;;;;17.11;78.08;99919.31;4992832;28;20137;-58
2021/11/02 13:34:13;;;;;;;1.27;0.60;;;;;;;16.98;78.11;99911.91;4985303;28;20137;-58
2021/11/02 13:36:41;;;;;;;3.53;1.20;;;;;;;16.92;78.08;99891.53;4994376;28;20050;-57
2021/11/02 13:39:14;;;;;;;1.90;0.60;;;;;;;16.77;77.82;99892.09;4987338;28;20050;-57
2021/11/02 13:41:53;;;;;;;1.98;0.85;;;;;;;16.58;78.03;99926.28;4984783;28;20057;-58
2021/11/02 13:44:20;;;;;;;4.13;0.73;;;;;;;16.35;77.99;99923.69;4994147;28;20074;-58
2021/11/02 13:46:55;;;;;;;4.35;0.80;;;;;;;16.19;77.77;99897.19;4990216;28;20129;-59
2021/11/02 13:49:23;;;;;;;6.18;0.85;;;;;;;16.07;77.90;99897.06;4988883;28;20051;-58
2021/11/02 13:51:51;;;;;;;5.18;0.93;;;;;;;16.11;78.15;99896.06;4982378;28;20098;-59
2021/11/02 13:54:20;;;;;;;4.05;0.75;;;;;;;16.41;78.50;99890.53;4978697;28;20054;-59
2021/11/02 13:56:48;;;;;;;2.20;0.65;;;;;;;16.54;78.19;99877.38;4988050;28;20758;-57
2021/11/02 13:59:15;;;;;;;3.92;1.10;;;;;;;16.80;78.36;99886.59;4987696;28;20129;-58
2021/11/02 14:01:51;;;;;;;4.13;0.95;;;;;;;17.07;77.98;99875.19;4987229;28;20129;-56
2021/11/02 14:04:23;;;;;;;0.40;0.40;;;;;;;17.24;77.72;99863.81;4991746;28;20046;-63
2021/11/02 14:07:18;;;;;;;2.45;0.65;;;;;;;17.43;77.64;99868.97;4984807;28;20086;-65
2021/11/02 14:09:52;;;;;;;2.63;0.65;;;;;;;17.55;76.87;99869.06;4979910;28;20137;-58
2021/11/02 14:12:28;;;;;;;4.13;0.52;;;;;;;17.59;77.09;99863.53;4991392;28;20092;-57
2021/11/02 14:15:10;;;;;;;2.38;1.08;;;;;;;17.62;77.34;99863.69;4987831;28;20073;-57
2021/11/02 14:17:41;;;;;;;0.63;0.43;;;;;;;17.70;76.65;99864.75;4993972;28;20101;-56
2021/11/02 14:20:12;;;;;;;2.03;0.98;;;;;;;17.70;76.22;99859.94;4990490;28;20093;-59
2021/11/02 14:22:52;;;;;;;3.55;0.75;;;;;;;17.69;76.23;99855.47;4985042;28;20084;-58
2021/11/02 14:25:20;;;;;;;1.38;0.85;;;;;;;17.69;76.28;99851.81;4986865;28;20129;-57
2021/11/02 14:27:52;;;;;;;3.03;1.02;;;;;;;17.69;76.21;99847.00;4991643;28;20125;-57
2021/11/02 14:30:21;;;;;;;3.22;1.00;;;;;;;17.70;76.20;99845.81;4987815;28;20081;-57
2021/11/02 14:33:15;;;;;;;0.95;0.60;;;;;;;17.73;76.02;99842.31;4993149;28;20061;-58
2021/11/02 14:35:52;;;;;;;5.00;0.82;;;;;;;17.74;75.63;99845.94;4985829;28;20133;-57
2021/11/02 14:38:44;;;;;;;0.98;0.55;;;;;;;17.70;75.78;99834.53;4991625;28;20494;-58
2021/11/02 14:41:32;;;;;;;9.48;1.60;;;;;;;17.66;76.16;99821.47;4988168;28;20038;-58
2021/11/02 14:44:29;;;;;;;3.03;0.70;;;;;;;17.80;76.50;99826.84;4984160;28;20062;-58
2021/11/02 14:46:59;;;;;;;0.98;0.57;;;;;;;17.91;75.34;99828.06;4973067;28;20077;-59
2021/11/02 14:49:28;;;;;;;2.70;0.90;;;;;;;17.87;75.11;99821.44;4988612;28;20464;-58
2021/11/02 14:51:56;;;;;;;5.70;2.00;;;;;;;17.85;75.21;99821.00;4982780;28;20089;-59
2021/11/02 14:54:32;;;;;;;7.30;1.40;;;;;;;17.82;74.95;99816.84;4973858;28;20129;-60
2021/11/02 14:57:19;;;;;;;4.95;1.75;;;;;;;17.87;75.17;99824.28;4979888;28;20077;-58
2021/11/02 14:59:47;;;;;;;;;;;;;;;17.92;76.11;99821.25;4990357;28;20077;-59
2021/11/02 15:02:17;;;;;;;7.82;2.08;;;;;;;17.85;75.07;99816.16;4985394;28;19964;-59
2021/11/02 15:04:44;;;;;;;5.95;1.55;;;;;;;17.76;74.65;99829.53;4988193;28;20054;-59
2021/11/02 15:07:15;;;;;;;8.85;1.50;;;;;;;17.67;75.35;99817.44;4984708;28;20078;-56
2021/11/02 15:09:43;;;;;;;7.13;1.70;;;;;;;17.55;74.80;99801.28;4987399;28;20042;-57
2021/11/02 15:12:11;;;;;;;3.75;1.15;;;;;;;17.34;75.39;99797.66;4982990;28;20082;-59
2021/11/02 15:14:43;;;;;;;9.02;1.20;;;;;;;17.29;75.32;99812.78;4984056;28;20138;-56
2021/11/02 15:17:12;;;;;;;7.60;1.25;;;;;;;17.22;76.05;99813.34;4987422;28;20109;-57
2021/11/02 15:19:42;;;;;;;5.85;1.10;;;;;;;17.16;76.41;99805.41;4977235;28;20462;-53
2021/11/02 15:22:16;;;;;;;3.80;0.82;;;;;;;17.00;76.29;99779.81;4980880;28;20132;-52
2021/11/02 15:24:56;;;;;;;3.55;0.60;;;;;;;17.00;76.01;99777.81;4987918;28;20486;-56
2021/11/02 15:27:26;;;;;;;8.23;1.73;;;;;;;17.03;75.62;99787.59;4989584;28;20112;-55
2021/11/02 15:29:54;;;;;;;;;;;;;;;16.98;76.37;99794.25;4987527;28;20141;-55
2021/11/02 15:32:25;;;;;;;4.72;1.20;;;;;;;17.01;75.92;99790.75;4988484;28;19922;-56
2021/11/02 15:34:57;;;;;;;5.63;1.83;;;;;;;17.03;75.43;99785.59;4986950;28;20092;-53
2021/11/02 15:37:32;;;;;;;6.05;1.63;;;;;;;17.12;75.21;99794.00;4988637;28;20069;-54
2021/11/02 15:40:00;;;;;;;4.38;1.85;;;;;;;17.15;75.64;99793.31;4987560;28;20129;-54
2021/11/02 15:42:35;;;;;;;6.80;2.03;;;;;;;17.16;75.29;99783.69;4976522;28;20085;-56
2021/11/02 15:45:32;;;;;;;8.70;2.15;;;;;;;17.20;75.46;99795.13;4983797;28;20054;-53
2021/11/02 15:48:05;;;;;;;7.93;1.80;;;;;;;17.20;75.56;99776.19;4984322;28;20073;-50
2021/11/02 15:50:34;;;;;;;5.00;2.10;;;;;;;17.32;75.31;99783.06;4984041;28;20062;-55
2021/11/02 15:53:03;;;;;;;11.00;2.28;;;;;;;17.09;75.62;99786.22;4984567;28;20082;-52
2021/11/02 15:55:31;;;;;;;6.90;1.50;;;;;;;16.92;75.60;99790.00;4983096;28;20132;-54
2021/11/02 15:58:02;;;;;;;6.93;1.70;;;;;;;16.79;76.15;99799.53;4987894;28;20483;-53
2021/11/02 16:00:33;;;;;;;9.43;2.28;;;;;;;16.75;76.66;99790.09;4987999;28;20078;-54
2021/11/02 16:03:00;;;;;;;9.02;2.80;;;;;;;16.53;77.01;99799.63;4992267;28;20046;-55
2021/11/02 16:05:32;;;;;;;18.45;2.95;;;;;;;16.21;77.50;99787.84;4982513;28;20109;-53
2021/11/02 16:08:00;;;;;;;7.95;2.70;;;;;;;16.10;77.71;99787.38;4984103;28;20529;-54
2021/11/02 16:10:29;;;;;;;18.50;4.85;;;;;;;15.93;78.82;99792.22;4990914;28;20085;-54
2021/11/02 16:13:02;;;;;;;7.40;2.33;;;;;;;15.92;78.88;99784.94;4989013;28;20145;-54
2021/11/02 16:15:33;;;;;;;6.20;1.75;;;;;;;15.91;79.21;99783.28;4984744;28;20086;-54
2021/11/02 16:18:04;;;;;;;12.50;3.67;;;;;;;15.99;78.73;99810.59;4990427;28;20049;-54
2021/11/02 16:20:37;;;;;;;2.70;0.47;;;;;;;15.80;79.57;99789.28;4989910;28;20050;-53
2021/11/02 16:23:11;;;;;;;9.68;2.10;;;;;;;15.79;79.34;99804.50;4986300;28;20145;-51
2021/11/02 16:25:57;;;;;;;6.40;1.48;;;;;;;15.61;79.15;99803.66;4981498;28;20057;-54
2021/11/02 16:28:30;;;;;;;4.43;1.20;;;;;;;15.38;79.44;99776.88;4989674;28;20058;-53
2021/11/02 16:31:01;;;;;;;10.27;2.03;;;;;;;15.62;78.58;99796.03;4980667;28;20038;-53
2021/11/02 16:33:38;;;;;;;;;;;;;;;15.60;78.74;99818.91;4972673;28;20138;-50
2021/11/02 16:36:20;;;;;;;5.78;1.70;;;;;;;15.52;78.61;99808.50;4983714;28;19975;-53
2021/11/02 16:38:49;;;;;;;8.43;1.92;;;;;;;15.58;78.46;99809.13;4984852;28;20466;-51
2021/11/02 16:41:25;;;;;;;6.05;1.50;;;;;;;15.51;78.07;99809.63;4978865;28;20049;-52
2021/11/02 16:44:11;;;;;;;5.95;2.08;;;;;;;15.40;78.19;99811.97;4989985;28;20490;-54
2021/11/02 16:46:44;;;;;;;12.75;3.08;;;;;;;15.45;78.30;99815.75;4987605;28;20121;-52
2021/11/02 16:49:21;;;;;;;10.27;2.35;;;;;;;15.52;78.32;99816.94;4986691;28;20193;-51
2021/11/02 16:51:53;;;;;;;1.58;0.70;;;;;;;15.45;77.70;99816.59;4991446;28;20121;-54
2021/11/02 16:54:25;;;;;;;11.57;2.80;;;;;;;15.46;77.96;99798.56;4987066;28;20466;-54
2021/11/02 16:57:02;;;;;;;5.97;1.92;;;;;;;15.57;78.26;99810.31;4982084;28;20133;-54